createdAt,value
2023-10-29T00:00:44.744Z,99.99
2023-10-29T00:02:44.659Z,99.99
2023-10-29T00:03:44.636Z,99.84
2023-10-29T00:04:44.415Z,99.46
2023-10-29T00:05:44.407Z,99.99
2023-10-29T00:06:44.249Z,99.99
2023-10-29T00:07:44.247Z,99.99
2023-10-29T00:08:44.111Z,99.99
2023-10-29T00:09:44.010Z,99.99
2023-10-29T00:10:43.929Z,99.99
2023-10-29T00:11:43.871Z,99.99
2023-10-29T00:12:43.767Z,99.99
2023-10-29T00:13:43.680Z,99.99
2023-10-29T00:14:43.619Z,99.99
2023-10-29T00:15:43.566Z,99.99
2023-10-29T00:16:43.440Z,99.99
2023-10-29T00:17:43.455Z,99.75
2023-10-29T00:18:43.279Z,99.99
2023-10-29T00:19:43.194Z,99.99
2023-10-29T00:20:43.140Z,99.99
2023-10-29T00:21:43.034Z,99.99
2023-10-29T00:22:42.953Z,99.99
2023-10-29T00:23:43.046Z,99.99
2023-10-29T00:24:42.790Z,99.99
2023-10-29T00:25:42.708Z,99.75
2023-10-29T00:26:42.639Z,99.99
2023-10-29T00:27:42.543Z,99.84
2023-10-29T00:28:42.470Z,99.46
2023-10-29T00:29:42.446Z,99.75
2023-10-29T00:30:42.300Z,99.84
2023-10-29T00:31:42.235Z,99.55
2023-10-29T00:32:42.216Z,98.79
2023-10-29T00:33:42.058Z,99.55
2023-10-29T00:34:41.976Z,98.89
2023-10-29T00:35:41.938Z,99.75
2023-10-29T00:36:41.814Z,99.65
2023-10-29T00:37:41.734Z,98.89
2023-10-29T00:38:41.681Z,99.84
2023-10-29T00:39:41.586Z,99.37
2023-10-29T00:40:41.491Z,98.41
2023-10-29T00:41:41.462Z,98.94
2023-10-29T00:42:41.333Z,98.75
2023-10-29T00:43:41.250Z,98.94
2023-10-29T00:44:41.222Z,98.36
2023-10-29T00:45:41.160Z,98.46
2023-10-29T00:46:41.011Z,98.56
2023-10-29T00:47:40.999Z,97.61
2023-10-29T00:48:40.851Z,97.61
2023-10-29T00:49:40.759Z,97.99
2023-10-29T00:50:40.914Z,98.08
2023-10-29T00:51:40.598Z,97.61
2023-10-29T00:52:40.515Z,98.36
2023-10-29T00:53:40.473Z,98.36
2023-10-29T00:54:40.350Z,98.46
2023-10-29T00:55:40.277Z,97.99
2023-10-29T00:56:40.296Z,97.80
2023-10-29T00:57:40.115Z,97.51
2023-10-29T00:58:40.032Z,97.22
2023-10-29T00:59:39.979Z,97.32
2023-10-29T01:00:39.870Z,96.65
2023-10-29T01:01:39.790Z,97.03
2023-10-29T01:02:39.788Z,96.56
2023-10-29T01:03:39.747Z,97.22
2023-10-29T01:04:39.543Z,97.41
2023-10-29T01:05:39.531Z,97.70
2023-10-29T01:06:39.383Z,97.61
2023-10-29T01:07:39.301Z,98.18
2023-10-29T01:08:39.281Z,98.27
2023-10-29T01:09:39.139Z,98.75
2023-10-29T01:10:39.056Z,98.18
2023-10-29T01:11:39.027Z,97.80
2023-10-29T01:12:38.904Z,98.36
2023-10-29T01:13:38.815Z,98.94
2023-10-29T01:14:38.765Z,98.27
2023-10-29T01:15:38.664Z,97.99
2023-10-29T01:16:38.573Z,97.99
2023-10-29T01:17:39.388Z,97.41
2023-10-29T01:18:38.415Z,97.41
2023-10-29T01:19:38.333Z,98.18
2023-10-29T01:20:38.298Z,98.46
2023-10-29T01:21:38.168Z,98.85
2023-10-29T01:22:38.085Z,98.46
2023-10-29T01:23:38.073Z,98.79
2023-10-29T01:24:37.926Z,98.85
2023-10-29T01:25:37.841Z,98.79
2023-10-29T01:26:37.867Z,98.75
2023-10-29T01:27:37.681Z,99.75
2023-10-29T01:28:37.616Z,98.75
2023-10-29T01:29:37.590Z,98.85
2023-10-29T01:30:37.434Z,98.75
2023-10-29T01:31:37.376Z,98.65
2023-10-29T01:32:37.334Z,99.70
2023-10-29T01:33:37.194Z,99.04
2023-10-29T01:34:37.115Z,99.51
2023-10-29T01:35:37.073Z,98.85
2023-10-29T01:36:36.956Z,99.32
2023-10-29T01:37:36.871Z,98.85
2023-10-29T01:38:36.855Z,98.46
2023-10-29T01:39:36.705Z,98.46
2023-10-29T01:40:36.629Z,98.75
2023-10-29T01:41:36.569Z,99.80
2023-10-29T01:42:36.476Z,98.85
2023-10-29T01:43:36.389Z,98.99
2023-10-29T01:44:36.322Z,99.08
2023-10-29T01:45:36.269Z,98.89
2023-10-29T01:46:36.145Z,98.79
2023-10-29T01:47:36.110Z,99.55
2023-10-29T01:48:36.029Z,99.46
2023-10-29T01:49:35.895Z,98.60
2023-10-29T01:50:35.867Z,99.08
2023-10-29T01:51:35.733Z,99.13
2023-10-29T01:52:35.652Z,98.94
2023-10-29T01:53:35.582Z,98.85
2023-10-29T01:54:35.494Z,98.85
2023-10-29T01:55:35.411Z,98.94
2023-10-29T01:56:35.363Z,99.32
2023-10-29T01:57:35.247Z,98.75
2023-10-29T01:58:35.168Z,99.60
2023-10-29T01:59:35.113Z,98.56
2023-10-29T02:00:35.019Z,98.94
2023-10-29T02:01:34.942Z,98.65
2023-10-29T02:02:34.926Z,98.75
2023-10-29T02:03:34.893Z,99.51
2023-10-29T02:04:34.682Z,98.65
2023-10-29T02:05:34.610Z,99.41
2023-10-29T02:06:34.519Z,99.51
2023-10-29T02:07:34.437Z,99.41
2023-10-29T02:08:34.413Z,99.51
2023-10-29T02:09:34.275Z,98.85
2023-10-29T02:10:34.201Z,98.22
2023-10-29T02:11:34.142Z,98.08
2023-10-29T02:12:34.036Z,98.36
2023-10-29T02:13:33.952Z,98.27
2023-10-29T02:14:34.075Z,98.46
2023-10-29T02:15:33.793Z,98.08
2023-10-29T02:16:33.709Z,98.18
2023-10-29T02:17:33.658Z,98.36
2023-10-29T02:18:33.549Z,98.18
2023-10-29T02:19:33.464Z,98.46
2023-10-29T02:20:33.461Z,98.13
2023-10-29T02:21:33.311Z,98.27
2023-10-29T02:22:33.226Z,98.65
2023-10-29T02:23:33.197Z,98.36
2023-10-29T02:24:33.061Z,98.56
2023-10-29T02:25:32.979Z,98.46
2023-10-29T02:26:32.909Z,98.46
2023-10-29T02:27:32.815Z,98.79
2023-10-29T02:28:32.753Z,98.79
2023-10-29T02:29:32.676Z,98.79
2023-10-29T02:30:32.580Z,99.08
2023-10-29T02:31:32.566Z,98.27
2023-10-29T02:32:32.502Z,98.36
2023-10-29T02:33:32.399Z,98.60
2023-10-29T02:34:32.252Z,98.60
2023-10-29T02:35:32.215Z,98.36
2023-10-29T02:36:32.089Z,97.80
2023-10-29T02:37:32.006Z,98.46
2023-10-29T02:38:31.939Z,99.04
2023-10-29T02:39:31.862Z,98.94
2023-10-29T02:40:31.767Z,98.85
2023-10-29T02:41:31.705Z,98.75
2023-10-29T02:42:31.605Z,98.89
2023-10-29T02:43:31.517Z,98.18
2023-10-29T02:44:31.464Z,98.27
2023-10-29T02:45:31.362Z,98.36
2023-10-29T02:46:31.276Z,98.65
2023-10-29T02:47:31.255Z,98.65
2023-10-29T02:48:31.215Z,98.36
2023-10-29T02:49:31.034Z,98.08
2023-10-29T02:50:31.057Z,98.65
2023-10-29T02:51:30.871Z,98.08
2023-10-29T02:52:30.790Z,98.08
2023-10-29T02:53:30.735Z,97.70
2023-10-29T02:54:30.632Z,97.51
2023-10-29T02:55:30.544Z,97.03
2023-10-29T02:56:30.475Z,97.70
2023-10-29T02:57:30.382Z,97.99
2023-10-29T02:58:30.314Z,96.75
2023-10-29T02:59:30.254Z,96.46
2023-10-29T03:00:30.146Z,96.56
2023-10-29T03:01:30.080Z,96.94
2023-10-29T03:02:30.091Z,97.51
2023-10-29T03:03:30.063Z,97.22
2023-10-29T03:04:29.836Z,97.22
2023-10-29T03:05:31.677Z,96.94
2023-10-29T03:06:29.682Z,97.41
2023-10-29T03:07:29.574Z,97.99
2023-10-29T03:08:29.524Z,97.03
2023-10-29T03:09:29.412Z,97.03
2023-10-29T03:10:29.335Z,97.51
2023-10-29T03:11:29.344Z,97.70
2023-10-29T03:12:29.171Z,97.61
2023-10-29T03:13:29.093Z,97.41
2023-10-29T03:14:29.036Z,97.51
2023-10-29T03:15:28.926Z,97.22
2023-10-29T03:16:28.845Z,97.22
2023-10-29T03:17:28.776Z,97.32
2023-10-29T03:18:28.724Z,97.03
2023-10-29T03:19:28.606Z,96.46
2023-10-29T03:20:28.544Z,96.17
2023-10-29T03:21:28.441Z,95.98
2023-10-29T03:22:28.423Z,96.36
2023-10-29T03:23:28.317Z,96.27
2023-10-29T03:24:28.197Z,95.79
2023-10-29T03:25:28.163Z,95.98
2023-10-29T03:26:28.066Z,95.61
2023-10-29T03:27:27.953Z,95.32
2023-10-29T03:28:27.876Z,95.89
2023-10-29T03:29:27.815Z,95.79
2023-10-29T03:30:27.715Z,95.61
2023-10-29T03:31:27.659Z,95.51
2023-10-29T03:32:27.631Z,95.79
2023-10-29T03:33:27.524Z,95.98
2023-10-29T03:34:27.400Z,95.70
2023-10-29T03:35:27.335Z,95.98
2023-10-29T03:36:27.227Z,95.98
2023-10-29T03:37:27.144Z,96.36
2023-10-29T03:38:27.090Z,95.89
2023-10-29T03:39:26.984Z,96.36
2023-10-29T03:40:26.901Z,95.79
2023-10-29T03:41:26.851Z,96.12
2023-10-29T03:42:26.740Z,96.17
2023-10-29T03:43:26.654Z,96.60
2023-10-29T03:44:26.602Z,96.22
2023-10-29T03:45:26.493Z,96.80
2023-10-29T03:46:26.415Z,96.80
2023-10-29T03:47:26.353Z,97.27
2023-10-29T03:48:26.341Z,96.70
2023-10-29T03:49:26.168Z,96.60
2023-10-29T03:50:26.112Z,96.80
2023-10-29T03:51:26.010Z,96.89
2023-10-29T03:52:25.935Z,96.70
2023-10-29T03:53:25.864Z,96.41
2023-10-29T03:54:25.772Z,96.32
2023-10-29T03:55:25.690Z,96.41
2023-10-29T03:56:25.668Z,96.51
2023-10-29T03:57:25.527Z,96.41
2023-10-29T03:58:25.441Z,96.12
2023-10-29T03:59:25.358Z,96.60
2023-10-29T04:00:25.278Z,96.22
2023-10-29T04:01:25.208Z,96.41
2023-10-29T04:02:25.115Z,96.41
2023-10-29T04:03:25.106Z,96.60
2023-10-29T04:04:24.985Z,97.08
2023-10-29T04:05:24.880Z,96.80
2023-10-29T04:06:24.793Z,96.32
2023-10-29T04:07:24.720Z,96.22
2023-10-29T04:08:24.630Z,96.60
2023-10-29T04:09:24.561Z,96.32
2023-10-29T04:10:24.474Z,96.89
2023-10-29T04:11:24.384Z,96.70
2023-10-29T04:12:24.301Z,97.17
2023-10-29T04:13:24.225Z,97.36
2023-10-29T04:14:24.139Z,97.36
2023-10-29T04:15:24.062Z,96.60
2023-10-29T04:16:24.007Z,97.27
2023-10-29T04:17:23.899Z,96.80
2023-10-29T04:18:23.898Z,96.51
2023-10-29T04:19:23.742Z,97.17
2023-10-29T04:20:23.670Z,97.36
2023-10-29T04:21:23.580Z,96.89
2023-10-29T04:22:23.495Z,96.98
2023-10-29T04:23:23.420Z,97.36
2023-10-29T04:24:23.335Z,97.46
2023-10-29T04:25:23.256Z,97.94
2023-10-29T04:26:23.171Z,98.03
2023-10-29T04:27:23.090Z,97.56
2023-10-29T04:28:23.005Z,97.56
2023-10-29T04:29:22.930Z,97.94
2023-10-29T04:30:22.874Z,97.56
2023-10-29T04:31:22.832Z,98.03
2023-10-29T04:32:22.679Z,97.65
2023-10-29T04:33:22.704Z,98.03
2023-10-29T04:34:22.516Z,97.51
2023-10-29T04:35:22.445Z,97.51
2023-10-29T04:36:22.354Z,97.70
2023-10-29T04:37:22.274Z,97.75
2023-10-29T04:38:22.190Z,98.03
2023-10-29T04:39:22.121Z,97.89
2023-10-29T04:40:22.037Z,97.03
2023-10-29T04:41:21.972Z,97.36
2023-10-29T04:42:21.868Z,97.41
2023-10-29T04:43:21.785Z,97.36
2023-10-29T04:44:21.707Z,97.84
2023-10-29T04:45:21.650Z,97.89
2023-10-29T04:46:21.604Z,97.65
2023-10-29T04:47:21.462Z,97.65
2023-10-29T04:48:21.482Z,97.70
2023-10-29T04:49:21.304Z,97.60
2023-10-29T04:50:21.219Z,97.70
2023-10-29T04:51:21.138Z,97.89
2023-10-29T04:52:21.062Z,97.70
2023-10-29T04:53:20.976Z,97.65
2023-10-29T04:54:20.894Z,97.75
2023-10-29T04:55:20.817Z,97.79
2023-10-29T04:56:20.729Z,97.99
2023-10-29T04:57:20.651Z,97.70
2023-10-29T04:58:20.567Z,97.51
2023-10-29T04:59:20.486Z,97.70
2023-10-29T05:00:20.405Z,97.89
2023-10-29T05:01:20.341Z,97.60
2023-10-29T05:02:20.239Z,97.79
2023-10-29T05:03:20.230Z,97.51
2023-10-29T05:04:20.103Z,98.08
2023-10-29T05:05:20.001Z,98.08
2023-10-29T05:06:19.929Z,98.36
2023-10-29T05:07:19.836Z,98.36
2023-10-29T05:08:19.763Z,98.27
2023-10-29T05:09:19.677Z,98.27
2023-10-29T05:10:19.590Z,98.36
2023-10-29T05:11:19.524Z,98.46
2023-10-29T05:12:19.429Z,98.36
2023-10-29T05:13:19.352Z,98.36
2023-10-29T05:14:19.277Z,98.18
2023-10-29T05:15:19.181Z,98.84
2023-10-29T05:16:19.156Z,98.74
2023-10-29T05:17:19.021Z,98.55
2023-10-29T05:18:19.020Z,98.84
2023-10-29T05:19:18.858Z,98.65
2023-10-29T05:20:18.786Z,99.03
2023-10-29T05:21:18.701Z,98.65
2023-10-29T05:22:18.619Z,98.55
2023-10-29T05:23:18.533Z,98.55
2023-10-29T05:24:18.453Z,98.94
2023-10-29T05:25:18.370Z,98.74
2023-10-29T05:26:18.288Z,99.22
2023-10-29T05:27:18.210Z,98.84
2023-10-29T05:28:18.125Z,98.84
2023-10-29T05:29:18.051Z,98.84
2023-10-29T05:30:17.963Z,98.74
2023-10-29T05:31:17.910Z,98.84
2023-10-29T05:32:17.797Z,99.51
2023-10-29T05:33:17.852Z,99.22
2023-10-29T05:34:17.650Z,98.74
2023-10-29T05:35:17.559Z,98.55
2023-10-29T05:36:17.486Z,98.65
2023-10-29T05:37:17.395Z,98.94
2023-10-29T05:38:17.307Z,99.03
2023-10-29T05:39:17.226Z,99.32
2023-10-29T05:40:17.144Z,99.03
2023-10-29T05:41:17.065Z,98.65
2023-10-29T05:42:16.980Z,99.41
2023-10-29T05:43:16.902Z,98.84
2023-10-29T05:44:16.822Z,99.03
2023-10-29T05:45:16.791Z,99.03
2023-10-29T05:46:16.757Z,99.03
2023-10-29T05:47:16.580Z,99.03
2023-10-29T05:48:16.524Z,98.36
2023-10-29T05:49:16.424Z,98.27
2023-10-29T05:50:16.337Z,98.65
2023-10-29T05:51:16.253Z,98.36
2023-10-29T05:52:16.181Z,98.55
2023-10-29T05:53:16.090Z,98.84
2023-10-29T05:54:16.006Z,98.36
2023-10-29T05:55:15.932Z,98.74
2023-10-29T05:56:15.844Z,98.94
2023-10-29T05:57:15.764Z,98.84
2023-10-29T05:58:15.680Z,98.94
2023-10-29T05:59:15.605Z,98.84
2023-10-29T06:00:15.525Z,98.94
2023-10-29T06:01:15.442Z,98.55
2023-10-29T06:02:15.353Z,98.08
2023-10-29T06:03:15.371Z,99.03
2023-10-29T06:04:15.298Z,98.74
2023-10-29T06:05:15.112Z,99.51
2023-10-29T06:06:15.027Z,98.74
2023-10-29T06:07:14.947Z,98.84
2023-10-29T06:08:14.866Z,98.84
2023-10-29T06:09:23.868Z,99.41
2023-10-29T06:10:15.004Z,99.79
2023-10-29T06:11:14.629Z,99.69
2023-10-29T06:12:14.540Z,99.51
2023-10-29T06:13:14.460Z,99.17
2023-10-29T06:14:14.376Z,99.41
2023-10-29T06:15:14.381Z,99.46
2023-10-29T06:16:14.212Z,99.74
2023-10-29T06:17:26.265Z,99.60
2023-10-29T06:18:14.151Z,99.69
2023-10-29T06:19:13.971Z,99.51
2023-10-29T06:20:13.886Z,99.93
2023-10-29T06:21:13.815Z,99.69
2023-10-29T06:22:13.725Z,99.99
2023-10-29T06:23:13.643Z,99.99
2023-10-29T06:24:13.597Z,99.69
2023-10-29T06:25:13.485Z,99.99
2023-10-29T06:26:13.394Z,99.99
2023-10-29T06:27:13.314Z,99.41
2023-10-29T06:28:13.240Z,99.22
2023-10-29T06:29:13.174Z,99.51
2023-10-29T06:30:13.109Z,99.60
2023-10-29T06:31:13.064Z,99.69
2023-10-29T06:32:12.903Z,99.69
2023-10-29T06:33:12.923Z,99.98
2023-10-29T06:34:12.740Z,99.99
2023-10-29T06:35:12.664Z,99.89
2023-10-29T06:36:12.589Z,99.89
2023-10-29T06:37:12.500Z,99.98
2023-10-29T06:38:12.413Z,99.69
2023-10-29T06:39:12.380Z,99.69
2023-10-29T06:40:12.250Z,99.32
2023-10-29T06:41:12.174Z,99.79
2023-10-29T06:42:12.090Z,99.22
2023-10-29T06:43:12.011Z,99.69
2023-10-29T06:44:11.927Z,99.69
2023-10-29T06:45:11.911Z,99.41
2023-10-29T06:46:11.781Z,99.69
2023-10-29T06:47:11.695Z,99.99
2023-10-29T06:48:11.685Z,99.60
2023-10-29T06:49:11.520Z,98.65
2023-10-29T06:50:11.440Z,98.74
2023-10-29T06:51:11.357Z,99.69
2023-10-29T06:52:11.271Z,99.03
2023-10-29T06:53:11.200Z,98.84
2023-10-29T06:54:11.110Z,99.41
2023-10-29T06:55:11.028Z,98.84
2023-10-29T06:56:10.947Z,99.32
2023-10-29T06:57:10.909Z,98.65
2023-10-29T06:58:10.782Z,98.65
2023-10-29T06:59:10.714Z,98.36
2023-10-29T07:00:10.651Z,98.84
2023-10-29T07:01:10.539Z,99.22
2023-10-29T07:02:10.482Z,98.94
2023-10-29T07:03:10.578Z,99.03
2023-10-29T07:04:10.443Z,98.74
2023-10-29T07:05:10.217Z,98.27
2023-10-29T07:06:10.142Z,98.89
2023-10-29T07:07:10.052Z,98.27
2023-10-29T07:08:09.970Z,98.32
2023-10-29T07:09:09.937Z,98.89
2023-10-29T07:10:09.804Z,98.89
2023-10-29T07:11:09.725Z,98.41
2023-10-29T07:12:09.671Z,98.70
2023-10-29T07:13:09.562Z,98.32
2023-10-29T07:14:09.479Z,97.84
2023-10-29T07:15:09.425Z,98.03
2023-10-29T07:16:09.347Z,98.60
2023-10-29T07:17:09.237Z,98.32
2023-10-29T07:18:09.265Z,97.27
2023-10-29T07:19:09.214Z,97.84
2023-10-29T07:20:08.996Z,97.84
2023-10-29T07:21:08.964Z,98.22
2023-10-29T07:22:08.827Z,98.51
2023-10-29T07:23:08.746Z,98.32
2023-10-29T07:24:08.698Z,98.22
2023-10-29T07:25:08.585Z,98.51
2023-10-29T07:26:08.502Z,98.32
2023-10-29T07:27:08.476Z,98.70
2023-10-29T07:28:08.338Z,97.65
2023-10-29T07:29:08.260Z,97.51
2023-10-29T07:30:08.200Z,97.32
2023-10-29T07:31:08.094Z,97.32
2023-10-29T07:32:08.017Z,97.41
2023-10-29T07:33:08.021Z,97.13
2023-10-29T07:34:07.848Z,96.36
2023-10-29T07:35:07.809Z,96.27
2023-10-29T07:36:07.734Z,96.27
2023-10-29T07:37:08.784Z,95.65
2023-10-29T07:38:07.521Z,95.65
2023-10-29T07:39:07.528Z,95.46
2023-10-29T07:40:07.363Z,94.89
2023-10-29T07:41:07.278Z,95.75
2023-10-29T07:42:07.239Z,96.22
2023-10-29T07:43:07.117Z,95.46
2023-10-29T07:44:07.044Z,96.03
2023-10-29T07:45:07.008Z,95.56
2023-10-29T07:46:06.999Z,95.75
2023-10-29T07:47:06.796Z,95.27
2023-10-29T07:48:06.753Z,95.65
2023-10-29T07:49:06.634Z,95.94
2023-10-29T07:50:07.130Z,95.75
2023-10-29T07:51:06.558Z,96.13
2023-10-29T07:52:06.388Z,95.75
2023-10-29T07:53:06.314Z,95.65
2023-10-29T07:54:06.288Z,95.46
2023-10-29T07:55:06.147Z,95.56
2023-10-29T07:56:06.067Z,95.27
2023-10-29T07:57:06.010Z,95.08
2023-10-29T07:58:05.903Z,95.79
2023-10-29T07:59:05.824Z,95.32
2023-10-29T08:00:05.797Z,95.37
2023-10-29T08:01:05.685Z,95.75
2023-10-29T08:02:05.581Z,95.75
2023-10-29T08:03:05.550Z,94.74
2023-10-29T08:04:05.470Z,94.74
2023-10-29T08:05:05.342Z,94.32
2023-10-29T08:06:05.324Z,93.46
2023-10-29T08:07:05.197Z,93.79
2023-10-29T08:08:05.098Z,93.60
2023-10-29T08:09:05.044Z,94.22
2023-10-29T08:10:04.933Z,96.70
2023-10-29T08:11:04.855Z,98.61
2023-10-29T08:12:04.879Z,99.99
2023-10-29T08:13:04.692Z,99.99
2023-10-29T08:14:04.612Z,99.56
2023-10-29T08:15:04.612Z,98.90
2023-10-29T08:16:04.508Z,98.13
2023-10-29T08:17:04.370Z,98.61
2023-10-29T08:18:04.367Z,99.08
2023-10-29T08:19:04.206Z,99.99
2023-10-29T08:20:04.125Z,99.99
2023-10-29T08:21:04.124Z,99.99
2023-10-29T08:22:03.965Z,99.99
2023-10-29T08:23:03.890Z,99.99
2023-10-29T08:24:03.834Z,99.99
2023-10-29T08:25:03.719Z,99.99
2023-10-29T08:26:03.642Z,99.99
2023-10-29T08:27:03.636Z,99.99
2023-10-29T08:28:03.479Z,99.99
2023-10-29T08:29:03.401Z,99.99
2023-10-29T08:30:04.357Z,99.99
2023-10-29T08:31:03.236Z,99.99
2023-10-29T08:32:03.159Z,99.99
2023-10-29T08:33:03.141Z,99.99
2023-10-29T08:34:03.005Z,99.99
2023-10-29T08:35:02.921Z,99.99
2023-10-29T08:36:02.899Z,99.99
2023-10-29T08:37:02.765Z,99.99
2023-10-29T08:38:02.685Z,99.99
2023-10-29T08:39:02.682Z,99.99
2023-10-29T08:40:02.509Z,99.99
2023-10-29T08:41:02.437Z,99.99
2023-10-29T08:42:02.405Z,99.99
2023-10-29T08:43:02.270Z,99.99
2023-10-29T08:44:02.204Z,99.99
2023-10-29T08:45:02.220Z,99.99
2023-10-29T08:46:02.168Z,99.99
2023-10-29T08:47:02.028Z,99.99
2023-10-29T08:48:01.901Z,99.99
2023-10-29T08:49:01.786Z,99.99
2023-10-29T08:50:01.713Z,99.99
2023-10-29T08:51:01.655Z,99.99
2023-10-29T08:52:01.544Z,99.99
2023-10-29T08:53:01.478Z,99.99
2023-10-29T08:54:01.419Z,99.99
2023-10-29T08:55:01.306Z,99.99
2023-10-29T08:56:01.223Z,99.99
2023-10-29T08:57:01.162Z,99.99
2023-10-29T08:58:01.060Z,99.99
2023-10-29T08:59:00.977Z,99.99
2023-10-29T09:00:00.932Z,99.99
2023-10-29T09:01:00.814Z,99.99
2023-10-29T09:02:00.736Z,99.99
2023-10-29T09:03:00.810Z,99.99
2023-10-29T09:04:00.752Z,99.99
2023-10-29T09:05:00.495Z,99.99
2023-10-29T09:06:00.465Z,99.52
2023-10-29T09:07:00.333Z,98.85
2023-10-29T09:08:00.259Z,98.75
2023-10-29T09:09:00.262Z,99.71
2023-10-29T09:10:00.147Z,98.94
2023-10-29T09:11:00.020Z,99.37
2023-10-29T09:11:59.946Z,98.99
2023-10-29T09:12:59.867Z,98.52
2023-10-29T09:13:59.775Z,97.75
2023-10-29T09:14:59.717Z,97.56
2023-10-29T09:15:59.626Z,96.89
2023-10-29T09:16:59.565Z,97.18
2023-10-29T09:17:59.484Z,96.70
2023-10-29T09:18:59.370Z,96.80
2023-10-29T09:19:59.289Z,96.70
2023-10-29T09:20:59.234Z,97.71
2023-10-29T09:21:59.126Z,97.61
2023-10-29T09:22:59.061Z,95.89
2023-10-29T09:23:59.009Z,94.84
2023-10-29T09:24:58.970Z,94.70
2023-10-29T09:25:58.838Z,93.36
2023-10-29T09:26:58.764Z,94.12
2023-10-29T09:27:58.647Z,92.88
2023-10-29T09:28:58.566Z,92.97
2023-10-29T09:29:58.550Z,92.26
2023-10-29T09:30:58.408Z,91.93
2023-10-29T09:31:58.331Z,93.21
2023-10-29T09:32:58.383Z,92.07
2023-10-29T09:33:58.169Z,92.16
2023-10-29T09:34:58.090Z,92.07
2023-10-29T09:35:58.052Z,91.30
2023-10-29T09:36:57.927Z,90.83
2023-10-29T09:37:57.850Z,90.83
2023-10-29T09:38:57.776Z,91.02
2023-10-29T09:39:57.692Z,91.59
2023-10-29T09:40:57.614Z,91.97
2023-10-29T09:41:57.592Z,92.45
2023-10-29T09:42:57.451Z,92.74
2023-10-29T09:43:57.369Z,92.45
2023-10-29T09:44:57.370Z,91.40
2023-10-29T09:45:57.242Z,90.83
2023-10-29T09:46:57.128Z,90.64
2023-10-29T09:47:57.136Z,91.21
2023-10-29T09:48:56.969Z,91.02
2023-10-29T09:49:56.892Z,91.40
2023-10-29T09:50:56.822Z,91.88
2023-10-29T09:51:56.730Z,92.16
2023-10-29T09:52:56.652Z,92.97
2023-10-29T09:53:56.582Z,92.79
2023-10-29T09:54:56.529Z,92.50
2023-10-29T09:55:56.432Z,93.16
2023-10-29T09:56:56.393Z,93.84
2023-10-29T09:57:56.259Z,93.74
2023-10-29T09:58:56.173Z,93.26
2023-10-29T09:59:56.154Z,92.59
2023-10-29T10:00:56.012Z,91.74
2023-10-29T10:01:58.836Z,92.11
2023-10-29T10:02:55.990Z,93.16
2023-10-29T10:03:55.893Z,92.69
2023-10-29T10:04:55.698Z,91.93
2023-10-29T10:05:55.657Z,92.02
2023-10-29T10:06:55.537Z,91.16
2023-10-29T10:07:55.450Z,91.06
2023-10-29T10:08:55.441Z,91.06
2023-10-29T10:09:55.294Z,90.78
2023-10-29T10:10:55.214Z,90.82
2023-10-29T10:11:55.151Z,90.82
2023-10-29T10:12:55.053Z,90.06
2023-10-29T10:13:54.975Z,89.48
2023-10-29T10:14:54.915Z,89.67
2023-10-29T10:15:54.869Z,90.06
2023-10-29T10:16:54.742Z,89.96
2023-10-29T10:17:54.706Z,89.96
2023-10-29T10:18:54.636Z,89.77
2023-10-29T10:19:54.516Z,89.10
2023-10-29T10:20:54.449Z,89.29
2023-10-29T10:21:54.335Z,89.01
2023-10-29T10:22:54.256Z,89.39
2023-10-29T10:23:54.304Z,89.87
2023-10-29T10:24:54.253Z,90.34
2023-10-29T10:25:54.024Z,90.06
2023-10-29T10:26:53.958Z,89.20
2023-10-29T10:27:53.863Z,89.20
2023-10-29T10:28:53.781Z,89.39
2023-10-29T10:29:53.741Z,88.53
2023-10-29T10:30:53.626Z,87.66
2023-10-29T10:31:53.574Z,87.57
2023-10-29T10:32:53.536Z,87.19
2023-10-29T10:33:53.386Z,87.19
2023-10-29T10:34:53.351Z,87.57
2023-10-29T10:35:53.391Z,88.34
2023-10-29T10:36:53.154Z,88.24
2023-10-29T10:37:53.067Z,87.66
2023-10-29T10:38:53.022Z,88.05
2023-10-29T10:39:52.911Z,88.53
2023-10-29T10:40:52.834Z,88.24
2023-10-29T10:41:52.793Z,88.72
2023-10-29T10:42:52.669Z,88.34
2023-10-29T10:43:52.592Z,87.86
2023-10-29T10:44:52.525Z,88.53
2023-10-29T10:45:52.477Z,88.34
2023-10-29T10:46:52.377Z,88.62
2023-10-29T10:47:52.386Z,89.29
2023-10-29T10:48:52.197Z,89.53
2023-10-29T10:49:52.140Z,88.95
2023-10-29T10:50:52.104Z,88.38
2023-10-29T10:51:51.960Z,87.33
2023-10-29T10:52:51.878Z,86.94
2023-10-29T10:53:51.821Z,86.94
2023-10-29T10:54:51.721Z,87.43
2023-10-29T10:56:02.334Z,87.33
2023-10-29T10:56:51.612Z,87.81
2023-10-29T10:57:51.484Z,87.23
2023-10-29T10:58:51.402Z,87.62
2023-10-29T10:59:51.371Z,87.62
2023-10-29T11:00:51.244Z,88.00
2023-10-29T11:01:51.223Z,87.81
2023-10-29T11:02:51.267Z,86.94
2023-10-29T11:03:51.101Z,85.80
2023-10-29T11:04:51.295Z,86.08
2023-10-29T11:05:50.925Z,86.37
2023-10-29T11:06:50.812Z,86.94
2023-10-29T11:07:50.695Z,86.76
2023-10-29T11:08:50.642Z,87.33
2023-10-29T11:09:50.534Z,86.94
2023-10-29T11:10:50.456Z,87.14
2023-10-29T11:11:50.426Z,87.37
2023-10-29T11:12:50.296Z,87.14
2023-10-29T11:13:50.220Z,85.71
2023-10-29T11:14:50.250Z,86.18
2023-10-29T11:15:50.171Z,85.99
2023-10-29T11:16:50.067Z,85.80
2023-10-29T11:17:49.953Z,86.18
2023-10-29T11:18:49.823Z,86.66
2023-10-29T11:19:49.744Z,87.14
2023-10-29T11:20:49.674Z,87.04
2023-10-29T11:21:49.591Z,87.62
2023-10-29T11:22:49.506Z,88.00
2023-10-29T11:23:49.515Z,87.81
2023-10-29T11:24:49.620Z,86.99
2023-10-29T11:25:49.280Z,86.51
2023-10-29T11:26:49.208Z,87.47
2023-10-29T11:27:49.123Z,88.04
2023-10-29T11:28:49.042Z,88.81
2023-10-29T11:29:48.965Z,89.52
2023-10-29T11:30:48.890Z,87.80
2023-10-29T11:31:48.814Z,87.03
2023-10-29T11:32:48.749Z,88.18
2023-10-29T11:33:48.643Z,87.90
2023-10-29T11:34:48.725Z,87.99
2023-10-29T11:35:48.666Z,86.27
2023-10-29T11:36:48.408Z,84.92
2023-10-29T11:37:48.334Z,85.69
2023-10-29T11:38:48.268Z,85.88
2023-10-29T11:39:48.174Z,86.94
2023-10-29T11:40:48.093Z,87.27
2023-10-29T11:41:48.050Z,86.99
2023-10-29T11:42:47.931Z,86.41
2023-10-29T11:43:47.855Z,85.55
2023-10-29T11:44:47.947Z,86.80
2023-10-29T11:45:47.706Z,86.41
2023-10-29T11:46:47.617Z,86.41
2023-10-29T11:47:47.572Z,86.90
2023-10-29T11:48:47.512Z,86.90
2023-10-29T11:49:47.383Z,86.61
2023-10-29T11:50:47.337Z,86.70
2023-10-29T11:51:47.225Z,86.99
2023-10-29T11:52:47.164Z,87.27
2023-10-29T11:53:47.124Z,87.76
2023-10-29T11:54:47.173Z,87.85
2023-10-29T11:55:46.914Z,88.33
2023-10-29T11:56:46.834Z,88.62
2023-10-29T11:57:46.753Z,88.52
2023-10-29T11:58:46.683Z,88.13
2023-10-29T11:59:46.604Z,88.90
2023-10-29T12:00:46.516Z,88.52
2023-10-29T12:01:46.437Z,88.43
2023-10-29T12:02:46.412Z,88.71
2023-10-29T12:03:46.561Z,89.58
2023-10-29T12:04:46.323Z,89.00
2023-10-29T12:05:46.145Z,88.62
2023-10-29T12:06:46.073Z,88.43
2023-10-29T12:07:45.968Z,88.33
2023-10-29T12:08:45.894Z,89.48
2023-10-29T12:09:45.912Z,89.38
2023-10-29T12:10:45.728Z,89.86
2023-10-29T12:11:45.670Z,90.44
2023-10-29T12:12:45.571Z,89.86
2023-10-29T12:13:45.525Z,90.91
2023-10-29T12:14:45.483Z,91.58
2023-10-29T12:15:45.343Z,91.11
2023-10-29T12:16:45.287Z,91.11
2023-10-29T12:17:45.228Z,91.11
2023-10-29T12:18:45.097Z,91.49
2023-10-29T12:19:45.066Z,91.58
2023-10-29T12:20:44.948Z,91.30
2023-10-29T12:21:44.861Z,91.30
2023-10-29T12:22:44.788Z,90.91
2023-10-29T12:23:44.808Z,90.53
2023-10-29T12:24:44.673Z,90.53
2023-10-29T12:25:44.549Z,89.95
2023-10-29T12:26:44.497Z,91.01
2023-10-29T12:27:44.390Z,91.58
2023-10-29T12:28:44.314Z,91.58
2023-10-29T12:29:44.266Z,91.30
2023-10-29T12:30:44.271Z,91.49
2023-10-29T12:31:44.075Z,91.11
2023-10-29T12:32:44.073Z,91.39
2023-10-29T12:33:43.936Z,92.06
2023-10-29T12:34:43.840Z,92.54
2023-10-29T12:35:43.791Z,92.44
2023-10-29T12:36:43.688Z,92.54
2023-10-29T12:37:43.605Z,92.63
2023-10-29T12:38:43.567Z,92.44
2023-10-29T12:39:43.450Z,92.16
2023-10-29T12:40:43.370Z,92.06
2023-10-29T12:41:43.299Z,92.35
2023-10-29T12:42:43.214Z,92.16
2023-10-29T12:43:43.135Z,92.35
2023-10-29T12:44:43.114Z,93.26
2023-10-29T12:45:42.973Z,92.87
2023-10-29T12:46:42.967Z,92.97
2023-10-29T12:47:42.891Z,93.07
2023-10-29T12:48:42.783Z,93.16
2023-10-29T12:49:42.661Z,91.87
2023-10-29T12:50:42.592Z,91.58
2023-10-29T12:51:42.758Z,91.34
2023-10-29T12:52:42.427Z,91.44